Nate Harrison Grade (214) Station Data

Red Flag Warning: No
Fire Weather Zone: 250
SDGE Region: North East
Lat/Lon: 33.322/-116.962

Observations

Time Wind Speed/Gust Temp(F) RH Fuel Moist Fuel Temp(F) Dewpt(F) Tmax(F) Tmin(F) Accum Precip 10-min Precip SL Press(mb)
4/26 2:50am 83 2 G 4 55° 72% - - 47° 56.7° 52.7° - - -
4/26 2:40am 115 4 G 5 54° 75% - - 47° 56.7° 52.7° - - -
4/26 2:30am 88 2 G 4 53° 76% - - 46° 56.7° 52.7° - - -
4/26 2:20am 163 3 G 5 54° 75% - - 46° 56.7° 52.7° - - -
4/26 2:10am 342 1 G 4 55° 72% - - 46° 56.7° 53.5° - - -
4/26 2:00am 87 3 G 5 56° 69% - - 46° 56.7° 53.5° - - -
4/26 1:50am 90 2 G 4 55° 72% - - 46° 56.6° 53.5° - - -
4/26 1:40am 39 1 G 2 54° 73% - - 46° 56.6° 53.5° - - -
4/26 1:30am 357 1 G 2 54° 74% - - 46° 56.6° 53.5° - - -
4/26 1:20am 179 0 G 1 54° 74% - - 46° 56.6° 53.8° - - -
4/26 1:10am 177 2 G 4 55° 72% - - 46° 56.6° 54° - - -
4/26 1:00am 116 2 G 3 56° 70% - - 46° 56.6° 54.2° - - -
4/26 12:50am 46 1 G 3 55° 70% - - 46° 56.1° 54.2° - - -
4/26 12:40am 0 1 G 2 55° 72% - - 46° 55.9° 54.2° - - -
4/26 12:30am 322 0 G 2 55° 71% - - 46° 55.9° 54.2° - - -
4/26 12:20am 354 1 G 3 55° 73% - - 47° 55.9° 54.2° - - -
4/26 12:10am 334 2 G 3 55° 74% - - 46° 55.4° 54.2° - - -
4/26 12:00am 347 1 G 4 57° 67% - - 46° 65.8° 51.7° - - -
4/25 11:50pm 63 1 G 2 58° 67% - - 47° 65.8° 51.7° - - -
4/25 11:40pm 14 3 G 4 57° 69% - - 47° 65.8° 51.7° - - -
4/25 11:30pm 4 3 G 5 57° 69% - - 47° 65.8° 51.7° - - -
4/25 11:20pm 341 1 G 3 57° 71% - - 47° 65.8° 51.7° - - -
4/25 11:10pm 328 0 G 1 57° 70% - - 47° 65.8° 51.7° - - -
4/25 11:00pm 120 3 G 5 58° 69% - - 48° 65.8° 51.7° - - -
4/25 10:50pm 95 4 G 5 58° 69% - - 48° 65.8° 51.7° - - -
4/25 10:40pm 74 3 G 5 57° 71% - - 48° 65.8° 51.7° - - -
4/25 10:30pm 104 4 G 5 57° 71% - - 47° 65.8° 51.7° - - -
4/25 10:20pm 117 6 G 7 56° 69% - - 46° 65.8° 51.7° - - -
4/25 10:10pm 133 4 G 6 57° 64% - - 45° 65.8° 51.7° - - -
4/25 10:00pm 124 2 G 3 57° 63% - - 45° 65.8° 51.7° - - -
4/25 9:50pm 97 3 G 5 57° 63% - - 44° 65.8° 51.7° - - -
4/25 9:40pm 64 2 G 3 57° 60% - - 43° 65.8° 51.7° - - -
4/25 9:30pm 74 1 G 4 57° 59% - - 43° 65.8° 51.7° - - -
4/25 9:20pm 131 3 G 4 57° 59% - - 43° 65.8° 51.7° - - -
4/25 9:10pm 136 4 G 5 57° 60% - - 43° 65.8° 51.7° - - -
4/25 9:00pm 121 4 G 5 57° 62% - - 44° 65.8° 51.7° - - -
4/25 8:50pm 74 2 G 4 57° 62% - - 44° 65.8° 51.7° - - -
4/25 8:40pm 60 3 G 5 56° 63% - - 44° 65.8° 51.7° - - -
4/25 8:30pm 44 3 G 5 57° 62% - - 44° 65.8° 51.7° - - -
4/25 8:20pm 48 3 G 4 56° 63% - - 44° 65.8° 51.7° - - -
4/25 8:10pm 45 2 G 3 57° 63% - - 44° 65.8° 51.7° - - -
4/25 8:00pm 37 2 G 3 57° 63% - - 44° 65.8° 51.7° - - -
4/25 7:50pm 30 2 G 3 57° 63% - - 44° 65.8° 51.7° - - -
4/25 7:40pm 353 2 G 3 57° 63% - - 45° 65.8° 51.7° - - -
4/25 7:30pm 327 2 G 3 57° 63% - - 45° 65.8° 51.7° - - -
4/25 7:20pm 338 3 G 4 57° 64% - - 45° 65.8° 51.7° - - -
4/25 7:10pm 314 3 G 4 58° 64% - - 46° 65.8° 51.7° - - -
4/25 7:00pm 297 3 G 5 59° 63% - - 46° 65.8° 51.7° - - -
4/25 6:50pm 308 4 G 7 59° 66% - - 48° 65.8° 51.7° - - -
4/25 6:40pm 306 5 G 8 60° 66% - - 48° 65.8° 51.7° - - -
4/25 6:30pm 304 5 G 8 60° 66% - - 49° 65.8° 51.7° - - -
4/25 6:20pm 310 5 G 7 60° 65% - - 49° 65.8° 51.7° - - -
4/25 6:10pm 292 4 G 8 62° 63% - - 49° 65.8° 51.7° - - -
4/25 6:00pm 291 4 G 8 62° 64% - - 50° 65.8° 51.7° - - -
4/25 5:50pm 283 4 G 7 62° 65% - - 50° 65.8° 51.7° - - -
4/25 5:40pm 284 4 G 8 62° 66% - - 50° 65.8° 51.7° - - -
4/25 5:30pm 246 4 G 7 62° 66% - - 50° 65.8° 51.7° - - -
4/25 5:20pm 284 4 G 9 61° 67% - - 50° 65.8° 51.7° - - -
4/25 5:10pm 270 4 G 10 62° 65% - - 50° 65.8° 51.7° - - -
4/25 5:00pm 291 4 G 8 62° 64% - - 50° 65.8° 51.7° - - -
4/25 4:50pm 242 4 G 9 63° 62% - - 50° 65.8° 51.7° - - -
4/25 4:40pm 269 3 G 8 64° 60% - - 50° 65.8° 51.7° - - -
4/25 4:30pm 247 6 G 11 64° 61% - - 50° 65.3° 51.7° - - -
4/25 4:20pm 247 5 G 9 63° 64% - - 50° 65.3° 51.7° - - -
4/25 4:10pm 260 6 G 14 62° 65% - - 50° 65.3° 51.7° - - -
4/25 4:00pm 281 5 G 11 63° 63% - - 50° 65.3° 51.7° - - -
4/25 3:50pm 284 5 G 11 63° 63% - - 50° 65.3° 51.7° - - -
4/25 3:40pm 296 4 G 8 63° 63% - - 50° 65.3° 51.7° - - -
4/25 3:30pm 276 5 G 9 62° 65% - - 50° 65.3° 51.7° - - -
4/25 3:20pm 308 6 G 10 61° 66% - - 50° 65.3° 51.7° - - -
4/25 3:10pm 299 6 G 13 61° 66% - - 50° 65.3° 51.7° - - -
4/25 3:00pm 304 7 G 11 62° 64% - - 50° 65.3° 51.7° - - -
4/25 2:50pm 283 3 G 8 63° 61% - - 50° 65.3° 51.7° - - -
4/25 2:40pm 289 6 G 13 62° 63% - - 50° 65.3° 51.7° - - -
4/25 2:30pm 274 4 G 11 63° 62% - - 50° 65.3° 51.7° - - -
4/25 2:20pm 287 4 G 9 62° 63% - - 50° 65.3° 51.7° - - -
4/25 2:10pm 264 5 G 9 64° 61% - - 50° 65.3° 51.7° - - -
4/25 2:00pm 263 6 G 14 64° 61% - - 50° 65.3° 51.7° - - -
4/25 1:50pm 293 6 G 10 63° 62% - - 50° 64.8° 51.7° - - -
4/25 1:40pm 312 6 G 12 62° 63% - - 49° 64.3° 51.7° - - -
4/25 1:30pm 265 6 G 13 63° 62% - - 50° 64.3° 51.7° - - -
4/25 1:20pm 291 5 G 10 63° 62% - - 49° 64.3° 51.7° - - -
4/25 1:10pm 300 5 G 12 63° 61% - - 49° 64.3° 51.7° - - -
4/25 1:00pm 294 5 G 11 62° 64% - - 50° 64.1° 51.7° - - -
4/25 12:50pm 312 6 G 12 62° 64% - - 50° 63.8° 51.7° - - -
4/25 12:40pm 310 5 G 8 62° 62% - - 49° 63.2° 51.7° - - -
4/25 12:30pm 309 6 G 11 62° 65% - - 50° 63.2° 51.7° - - -
4/25 12:20pm 290 5 G 11 62° 63% - - 49° 63.1° 51.7° - - -
4/25 12:10pm 272 3 G 8 62° 59% - - 47° 62.9° 51.7° - - -
4/25 12:00pm 312 5 G 10 61° 61% - - 47° 61.8° 51.7° - - -
4/25 11:50am 333 4 G 7 61° 61% - - 47° 61.8° 51.7° - - -
4/25 11:40am 343 3 G 8 60° 62% - - 47° 61.8° 51.7° - - -
4/25 11:30am 307 3 G 6 61° 62% - - 48° 61.8° 51.7° - - -
4/25 11:20am 248 2 G 5 61° 62% - - 48° 61.6° 51.7° - - -
4/25 11:10am 334 3 G 5 59° 68% - - 48° 60.6° 51.7° - - -
4/25 11:00am 301 2 G 4 59° 70% - - 49° 60.6° 51.7° - - -
4/25 10:50am 298 4 G 6 59° 71% - - 49° 60.6° 51.7° - - -
4/25 10:40am 329 2 G 7 59° 68% - - 49° 60.6° 51.7° - - -
4/25 10:30am 321 3 G 6 58° 69% - - 48° 59.9° 51.7° - - -
4/25 10:20am 306 2 G 5 59° 70% - - 49° 59.9° 51.7° - - -
4/25 10:10am 264 2 G 4 59° 72% - - 50° 59.9° 51.7° - - -
4/25 10:00am 315 2 G 4 58° 73% - - 49° 59.9° 51.7° - - -
4/25 9:50am 291 2 G 5 58° 74% - - 49° 59.9° 51.7° - - -
4/25 9:40am 343 1 G 3 57° 74% - - 49° 59.9° 51.7° - - -
4/25 9:30am 240 1 G 4 58° 72% - - 49° 59.9° 51.7° - - -
4/25 9:20am 180 1 G 5 58° 73% - - 49° 59.6° 51.7° - - -
4/25 9:10am 152 1 G 3 57° 76% - - 50° 58.4° 51.7° - - -
4/25 9:00am 210 2 G 4 55° 82% - - 50° 56.6° 51.7° - - -
4/25 8:50am 220 1 G 4 55° 83% - - 50° 55.7° 51.7° - - -
4/25 8:40am 245 1 G 3 55° 83% - - 50° 55.7° 51.7° - - -
4/25 8:30am 195 1 G 5 55° 85% - - 50° 55.5° 51.7° - - -
4/25 8:20am 180 3 G 6 54° 87% - - 50° 54.9° 51.7° - - -
4/25 8:10am 190 3 G 6 54° 87% - - 50° 54.8° 51.7° - - -
4/25 8:00am 175 1 G 4 53° 89% - - 50° 54.3° 51.7° - - -
4/25 7:50am 201 2 G 4 53° 88% - - 50° 54° 51.7° - - -
4/25 7:40am 183 1 G 4 53° 89% - - 50° 54° 51.7° - - -
4/25 7:30am 183 1 G 3 53° 89% - - 50° 54° 51.7° - - -
4/25 7:20am 186 2 G 4 53° 89% - - 50° 54° 51.7° - - -
4/25 7:10am 180 1 G 3 53° 88% - - 50° 54° 51.7° - - -
4/25 7:00am 189 0 G 1 53° 89% - - 50° 54° 51.7° - - -
4/25 6:50am 57 1 G 2 53° 90% - - 50° 54° 51.7° - - -
4/25 6:40am 41 1 G 4 53° 91% - - 50° 54° 51.7° - - -
4/25 6:30am 130 0 G 2 52° 91% - - 50° 54° 51.7° - - -
4/25 6:20am 215 1 G 5 52° 91% - - 50° 54° 51.7° - - -
4/25 6:10am 324 1 G 3 52° 91% - - 50° 54° 51.7° - - -
4/25 6:00am 212 1 G 3 52° 91% - - 50° 54° 51.7° - - -
4/25 5:50am 0 0 G 0 52° 91% - - 50° 54° 51.7° - - -
4/25 5:40am 329 0 G 0 52° 92% - - 50° 54° 51.7° - - -
4/25 5:30am 357 2 G 3 52° 92% - - 50° 54° 51.8° - - -
4/25 5:20am 301 1 G 2 52° 92% - - 50° 54° 51.8° - - -
4/25 5:10am 294 1 G 3 52° 92% - - 50° 54° 51.8° - - -
4/25 5:00am 230 0 G 2 52° 93% - - 50° 54° 51.8° - - -
4/25 4:50am 206 1 G 4 52° 93% - - 50° 54° 51.8° - - -
4/25 4:40am 183 3 G 5 52° 93% - - 50° 54° 51.8° - - -
4/25 4:30am 202 3 G 5 52° 93% - - 50° 54° 51.9° - - -
4/25 4:20am 171 3 G 5 52° 94% - - 51° 54° 51.9° - - -
4/25 4:10am 185 2 G 5 53° 93% - - 50° 54° 51.9° - - -
4/25 4:00am 177 2 G 6 53° 93% - - 50° 54° 51.9° - - -
4/25 3:50am 173 2 G 7 53° 92% - - 50° 54° 51.9° - - -
4/25 3:40am 215 1 G 3 53° 91% - - 50° 54° 51.9° - - -
4/25 3:30am 204 0 G 2 53° 91% - - 50° 54° 51.9° - - -
4/25 3:20am 157 1 G 2 53° 91% - - 50° 54° 51.9° - - -
4/25 3:10am 326 0 G 2 53° 91% - - 50° 54° 51.9° - - -
4/25 3:00am 342 0 G 1 53° 91% - - 50° 54° 51.9° - - -
4/25 2:50am 330 0 G 1 52° 92% - - 50° 54° 51.9° - - -
4/25 2:40am 355 1 G 2 52° 93% - - 50° 54° 51.9° - - -
4/25 2:30am 309 2 G 3 52° 91% - - 50° 54° 51.9° - - -
4/25 2:20am 215 3 G 5 53° 90% - - 50° 54° 52.3° - - -
4/25 2:10am 218 2 G 5 53° 90% - - 50° 54° 52.5° - - -
4/25 2:00am 210 2 G 4 53° 91% - - 50° 54° 52.5° - - -
4/25 1:50am 175 3 G 7 53° 92% - - 51° 54° 52.5° - - -
4/25 1:40am 172 3 G 5 53° 94% - - 51° 54° 52.5° - - -
4/25 1:30am 175 2 G 4 53° 94% - - 51° 54° 52.6° - - -
4/25 1:20am 203 2 G 5 53° 94% - - 51° 54° 52.6° - - -
4/25 1:10am 192 2 G 5 53° 91% - - 51° 54° 52.8° - - -
4/25 1:00am 182 2 G 5 53° 91% - - 51° 54° 52.9° - - -
4/25 12:50am 162 1 G 4 54° 90% - - 51° 54° 52.9° - - -
4/25 12:40am 157 1 G 3 53° 90% - - 51° 53.9° 52.9° - - -
4/25 12:30am 153 1 G 3 53° 91% - - 51° 53.8° 52.9° - - -
4/25 12:20am 157 3 G 6 53° 92% - - 51° 53.8° 52.9° - - -
4/25 12:10am 185 2 G 4 53° 91% - - 51° 53.8° 53° - - -
4/25 12:00am 164 4 G 8 54° 91% - - 51° 68.8° 50.4° - - -
4/24 11:50pm 162 2 G 4 54° 91% - - 51° 68.8° 50.4° - - -
4/24 11:40pm 165 2 G 5 53° 92% - - 51° 68.8° 50.4° - - -
4/24 11:30pm 170 3 G 5 54° 92% - - 51° 68.8° 50.4° - - -
4/24 11:20pm 214 2 G 3 54° 91% - - 51° 68.8° 50.4° - - -
4/24 11:10pm 273 3 G 5 54° 91% - - 51° 68.8° 50.4° - - -
4/24 11:00pm 265 3 G 6 54° 90% - - 51° 68.8° 50.4° - - -
4/24 10:50pm 298 3 G 5 54° 89% - - 51° 68.8° 50.4° - - -
4/24 10:40pm 283 2 G 4 55° 88% - - 51° 68.8° 50.4° - - -
4/24 10:30pm 209 2 G 4 55° 88% - - 51° 68.8° 50.4° - - -
4/24 10:20pm 235 2 G 4 55° 88% - - 51° 68.8° 50.4° - - -
4/24 10:10pm 224 2 G 5 55° 88% - - 51° 68.8° 50.4° - - -
4/24 10:00pm 214 3 G 5 55° 87% - - 51° 68.8° 50.4° - - -
4/24 9:50pm 208 3 G 5 55° 88% - - 51° 68.8° 50.4° - - -
4/24 9:40pm 236 2 G 5 55° 87% - - 51° 68.8° 50.4° - - -
4/24 9:30pm 223 3 G 6 55° 87% - - 51° 68.8° 50.4° - - -
4/24 9:20pm 200 3 G 6 55° 87% - - 51° 68.8° 50.4° - - -
4/24 9:10pm 221 3 G 7 55° 87% - - 52° 68.8° 50.4° - - -
4/24 9:00pm 233 2 G 5 56° 87% - - 52° 68.8° 50.4° - - -
4/24 8:50pm 235 3 G 5 56° 86% - - 52° 68.8° 50.4° - - -
4/24 8:40pm 262 2 G 4 56° 87% - - 52° 68.8° 50.4° - - -
4/24 8:30pm 292 2 G 4 56° 87% - - 52° 68.8° 50.4° - - -
4/24 8:20pm 301 2 G 4 56° 87% - - 52° 68.8° 50.4° - - -
4/24 8:10pm 287 1 G 2 56° 87% - - 52° 68.8° 50.4° - - -
4/24 8:00pm 311 2 G 4 56° 87% - - 52° 68.8° 50.4° - - -
4/24 7:50pm 280 2 G 4 56° 84% - - 52° 68.8° 50.4° - - -
4/24 7:40pm 311 2 G 6 56° 84% - - 52° 68.8° 50.4° - - -
4/24 7:30pm 304 3 G 6 56° 84% - - 52° 68.8° 50.4° - - -
4/24 7:20pm 245 4 G 8 57° 84% - - 52° 68.8° 50.4° - - -
4/24 7:10pm 294 3 G 7 57° 84% - - 52° 68.8° 50.4° - - -
4/24 7:00pm 303 5 G 8 57° 83% - - 52° 68.8° 50.4° - - -
4/24 6:50pm 295 4 G 7 58° 82% - - 53° 68.8° 50.4° - - -
4/24 6:40pm 312 6 G 9 58° 80% - - 52° 68.8° 50.4° - - -
4/24 6:30pm 310 6 G 9 59° 78% - - 52° 68.8° 50.4° - - -
4/24 6:20pm 308 5 G 9 59° 76% - - 52° 68.8° 50.4° - - -
4/24 6:10pm 302 5 G 9 60° 75% - - 52° 68.8° 50.4° - - -
4/24 6:00pm 311 4 G 10 60° 75% - - 52° 68.8° 50.4° - - -